Time;durP1;ratioP1;P1;durP2;ratioP2;P2;SDS_P1;SDS_P2;PMS_P1;PMS_P2;Temp;Humidity;BMP_temperature;BMP_pressure;BME280_temperature;BME280_humidity;BME280_pressure;Samples;Min_cycle;Max_cycle;Signal;HPM_P1;HPM_P2
2024/05/01 00:01:29;;;;;;;6.93;3.08;;;15.10;77.70;18.80;100886.00;;;;5446548;26;20433;-50
2024/05/01 00:03:55;;;;;;;8.98;2.92;;;15.10;78.10;18.90;100883.00;;;;5435560;26;19998;-54
2024/05/01 00:06:22;;;;;;;10.90;4.13;;;15.10;78.20;18.90;100878.00;;;;5444854;26;20000;-49
2024/05/01 00:08:48;;;;;;;7.95;3.35;;;15.00;78.60;18.90;100882.00;;;;5446655;26;20076;-49
2024/05/01 00:11:15;;;;;;;10.52;3.60;;;15.00;78.90;18.90;100877.00;;;;5441689;26;20058;-48
2024/05/01 00:13:42;;;;;;;7.40;3.22;;;14.90;79.30;18.70;100867.00;;;;5448353;26;20006;-49
2024/05/01 00:16:08;;;;;;;10.88;3.65;;;14.90;79.20;18.60;100856.00;;;;5445204;26;20011;-57
2024/05/01 00:18:35;;;;;;;13.00;3.63;;;14.90;79.90;18.70;100871.00;;;;5447892;26;19995;-49
2024/05/01 00:21:01;;;;;;;10.13;3.03;;;14.80;80.20;18.40;100851.00;;;;5439234;26;20081;-50
2024/05/01 00:23:27;;;;;;;6.30;3.55;;;14.80;80.40;18.70;100860.00;;;;5449535;26;20076;-52
2024/05/01 00:25:54;;;;;;;8.57;3.17;;;14.70;80.80;18.50;100856.00;;;;5456693;26;20052;-47
2024/05/01 00:28:20;;;;;;;7.43;4.18;;;14.70;81.10;18.60;100847.00;;;;5443281;26;20007;-49
2024/05/01 00:30:46;;;;;;;14.10;3.58;;;14.70;81.10;18.40;100850.00;;;;5446765;26;20003;-52
2024/05/01 00:33:12;;;;;;;13.48;3.85;;;14.70;81.60;18.50;100844.00;;;;5445356;26;20363;-48
2024/05/01 00:35:38;;;;;;;9.75;3.38;;;14.60;81.60;18.40;100844.00;;;;5451237;26;20000;-54
2024/05/01 00:38:04;;;;;;;8.32;3.28;;;14.60;82.00;18.40;100846.00;;;;5450192;26;20006;-50
2024/05/01 00:40:31;;;;;;;6.90;3.28;;;14.50;82.60;18.40;100844.00;;;;5452243;26;20022;-48
2024/05/01 00:42:57;;;;;;;9.57;3.33;;;14.50;82.90;18.40;100847.00;;;;5452847;26;20035;-49
2024/05/01 00:45:24;;;;;;;6.90;3.35;;;14.50;83.10;18.30;100845.00;;;;5458282;26;20002;-61
2024/05/01 00:47:52;;;;;;;8.38;3.35;;;14.50;84.00;18.40;100843.00;;;;5452453;26;19996;-52
2024/05/01 00:50:27;;;;;;;7.00;3.13;;;14.40;83.90;18.30;100845.00;;;;5447539;26;20347;-50
2024/05/01 00:52:56;;;;;;;8.80;3.20;;;14.30;84.80;18.10;100845.00;;;;5457981;26;20036;-48
2024/05/01 00:55:25;;;;;;;8.27;3.15;;;14.30;85.30;18.00;100844.00;;;;5423510;26;20395;-49
2024/05/01 00:57:55;;;;;;;7.72;3.60;;;14.30;86.20;18.20;100830.00;;;;5436220;26;20048;-49
2024/05/01 01:00:21;;;;;;;6.32;3.55;;;14.20;86.20;18.00;100843.00;;;;5450921;26;20188;-50
2024/05/01 01:02:50;;;;;;;14.02;3.72;;;14.20;86.80;17.80;100830.00;;;;5450267;26;19995;-48
2024/05/01 01:05:17;;;;;;;6.65;3.22;;;14.10;87.40;17.70;100828.00;;;;5455283;26;20007;-48
2024/05/01 01:07:44;;;;;;;7.25;3.60;;;14.10;88.00;18.00;100831.00;;;;5450851;26;19999;-48
2024/05/01 01:10:10;;;;;;;10.60;3.65;;;14.10;89.10;17.90;100832.00;;;;5450078;26;20003;-49
2024/05/01 01:12:36;;;;;;;13.10;3.80;;;14.00;89.40;17.70;100834.00;;;;5455848;26;20059;-49
2024/05/01 01:15:05;;;;;;;11.10;3.47;;;14.00;90.10;17.90;100847.00;;;;5448940;26;20007;-54
2024/05/01 01:17:39;;;;;;;7.45;3.58;;;14.00;90.20;17.80;100836.00;;;;5455882;26;19995;-48
2024/05/01 01:20:05;;;;;;;10.20;3.55;;;13.90;90.50;18.10;100845.00;;;;5446946;26;20009;-49
2024/05/01 01:22:32;;;;;;;7.50;3.28;;;13.90;90.90;18.00;100843.00;;;;5458074;26;20340;-53
2024/05/01 01:24:59;;;;;;;7.05;3.58;;;13.80;91.30;17.80;100835.00;;;;5457650;26;20071;-49
2024/05/01 01:27:25;;;;;;;8.27;3.30;;;13.80;91.90;17.70;100845.00;;;;5458589;26;19994;-48
2024/05/01 01:29:52;;;;;;;7.38;3.33;;;13.70;92.30;17.70;100828.00;;;;5458369;26;19995;-55
2024/05/01 01:32:18;;;;;;;7.60;3.60;;;13.70;92.90;17.90;100845.00;;;;5456941;26;20003;-49
2024/05/01 01:34:44;;;;;;;6.72;3.67;;;13.70;93.40;17.80;100829.00;;;;5456736;26;19991;-52
2024/05/01 01:37:10;;;;;;;10.18;3.97;;;13.60;93.50;17.60;100831.00;;;;5456310;26;20439;-49
2024/05/01 01:39:37;;;;;;;9.90;3.60;;;13.60;94.00;17.50;100832.00;;;;5456872;26;20030;-50
2024/05/01 01:42:06;;;;;;;7.07;3.70;;;13.50;94.40;17.60;100822.00;;;;5458775;26;19998;-49
2024/05/01 01:44:32;;;;;;;8.60;3.42;;;13.50;94.90;17.50;100820.00;;;;5454079;26;20018;-49
2024/05/01 01:46:58;;;;;;;8.00;3.47;;;13.50;95.30;17.40;100817.00;;;;5451180;26;20379;-48
2024/05/01 01:49:24;;;;;;;11.68;3.50;;;13.40;95.80;17.40;100826.00;;;;5450377;26;19999;-49
2024/05/01 01:51:50;;;;;;;9.90;3.70;;;13.40;96.50;17.40;100820.00;;;;5446687;26;20335;-48
2024/05/01 01:54:17;;;;;;;9.55;3.97;;;13.40;96.60;17.00;100809.00;;;;5445224;26;20002;-48
2024/05/01 01:56:43;;;;;;;13.57;3.58;;;13.30;97.10;17.30;100812.00;;;;5444182;26;20406;-48
2024/05/01 01:59:09;;;;;;;8.10;3.50;;;13.30;97.50;17.50;100810.00;;;;5451086;26;20424;-48
2024/05/01 02:01:39;;;;;;;10.40;3.50;;;13.30;97.80;17.30;100806.00;;;;5438208;26;20003;-48
2024/05/01 02:04:06;;;;;;;5.60;3.35;;;13.30;98.20;17.60;100812.00;;;;5476057;26;20011;-48
2024/05/01 02:06:32;;;;;;;13.05;4.25;;;13.30;98.50;17.40;100802.00;;;;5453757;26;19999;-50
2024/05/01 02:08:58;;;;;;;6.68;3.80;;;13.20;99.00;17.20;100809.00;;;;5442239;26;20008;-56
2024/05/01 02:11:24;;;;;;;6.63;3.55;;;13.20;99.50;17.10;100797.00;;;;5442911;26;19999;-49
2024/05/01 02:13:50;;;;;;;6.28;3.58;;;13.20;99.70;17.40;100797.00;;;;5447417;26;20362;-49
2024/05/01 02:16:16;;;;;;;8.82;3.47;;;13.20;99.90;17.40;100797.00;;;;5455348;26;20007;-50
2024/05/01 02:18:42;;;;;;;8.15;3.80;;;13.10;99.90;17.30;100795.00;;;;5438450;26;20007;-50
2024/05/01 02:21:10;;;;;;;6.70;3.78;;;13.00;99.90;17.10;100797.00;;;;5455139;26;20006;-48
2024/05/01 02:23:36;;;;;;;10.82;4.10;;;13.00;99.90;17.20;100795.00;;;;5444704;26;20003;-48
2024/05/01 02:26:02;;;;;;;6.60;3.55;;;13.00;99.90;17.30;100793.00;;;;5453664;26;19994;-53
2024/05/01 02:28:28;;;;;;;8.43;3.88;;;13.00;99.90;17.40;100795.00;;;;5454947;26;20071;-49
2024/05/01 02:30:55;;;;;;;13.60;3.92;;;13.00;99.90;17.20;100794.00;;;;5438728;26;20003;-49
2024/05/01 02:33:21;;;;;;;13.35;3.78;;;12.90;99.90;17.20;100797.00;;;;5442158;26;20043;-48
2024/05/01 02:35:47;;;;;;;9.93;3.75;;;12.90;99.90;17.10;100787.00;;;;5437292;26;20002;-49
2024/05/01 02:38:13;;;;;;;7.82;3.30;;;12.90;99.90;17.30;100784.00;;;;5448496;26;20044;-48
2024/05/01 02:40:39;;;;;;;9.65;3.58;;;12.90;99.90;17.10;100785.00;;;;5444741;26;20000;-55
2024/05/01 02:43:05;;;;;;;7.20;4.03;;;12.80;99.90;16.80;100785.00;;;;5440662;26;20318;-51
2024/05/01 02:45:31;;;;;;;5.90;3.72;;;12.70;99.90;16.60;100778.00;;;;5451420;26;20039;-49
2024/05/01 02:47:57;;;;;;;8.38;4.15;;;12.60;99.90;16.70;100775.00;;;;5445260;26;20377;-65
2024/05/01 02:50:23;;;;;;;18.70;3.60;;;12.60;99.90;16.70;100768.00;;;;5434423;26;20003;-57
2024/05/01 02:52:49;;;;;;;14.00;4.18;;;12.60;99.90;16.80;100768.00;;;;5444328;26;19995;-50
2024/05/01 02:55:16;;;;;;;6.50;3.42;;;12.60;99.90;16.60;100769.00;;;;5446576;26;20011;-48
2024/05/01 02:57:42;;;;;;;9.23;3.97;;;12.50;99.90;16.70;100762.00;;;;5457554;26;20430;-48
2024/05/01 03:00:09;;;;;;;13.43;4.10;;;12.50;99.90;16.60;100766.00;;;;5461192;26;20013;-48
2024/05/01 03:02:35;;;;;;;6.20;4.07;;;12.50;99.90;16.60;100764.00;;;;5459822;26;19998;-49
2024/05/01 03:05:01;;;;;;;8.70;3.90;;;12.40;99.90;16.40;100763.00;;;;5461527;26;20003;-49
2024/05/01 03:07:27;;;;;;;6.40;3.45;;;12.40;99.90;16.40;100772.00;;;;5459146;26;19995;-48
2024/05/01 03:09:53;;;;;;;7.70;3.67;;;12.40;99.90;16.30;100767.00;;;;5458099;26;20133;-49
2024/05/01 03:12:19;;;;;;;4.90;3.63;;;12.40;99.90;16.40;100768.00;;;;5460365;26;20067;-50
2024/05/01 03:14:45;;;;;;;6.45;4.10;;;12.40;99.90;16.30;100766.00;;;;5458254;26;20003;-49
2024/05/01 03:17:12;;;;;;;10.15;3.67;;;12.30;99.90;16.50;100776.00;;;;5459232;26;20002;-49
2024/05/01 03:19:40;;;;;;;10.13;3.65;;;12.30;99.90;16.40;100769.00;;;;5458600;26;20002;-48
2024/05/01 03:22:07;;;;;;;4.20;3.75;;;12.40;99.90;16.40;100769.00;;;;5439020;26;19999;-48
2024/05/01 03:24:37;;;;;;;18.70;4.07;;;12.40;99.90;16.20;100769.00;;;;5453807;26;20071;-59
2024/05/01 03:27:03;;;;;;;7.55;4.40;;;12.30;99.90;16.20;100763.00;;;;5444084;26;20010;-49
2024/05/01 03:29:30;;;;;;;13.80;4.10;;;12.30;99.90;16.10;100763.00;;;;5442266;26;19998;-49
2024/05/01 03:31:56;;;;;;;7.82;4.50;;;12.30;99.90;16.40;100758.00;;;;5460605;26;20435;-48
2024/05/01 03:34:22;;;;;;;15.13;4.82;;;12.30;99.90;16.00;100768.00;;;;5458212;26;20114;-49
2024/05/01 03:36:48;;;;;;;7.57;4.22;;;12.30;99.90;16.20;100758.00;;;;5452595;26;20038;-50
2024/05/01 03:39:14;;;;;;;8.85;4.22;;;12.30;99.90;16.10;100755.00;;;;5434560;26;20004;-49
2024/05/01 03:41:40;;;;;;;8.05;3.83;;;12.20;99.90;16.30;100766.00;;;;5459041;26;20011;-50
2024/05/01 03:44:06;;;;;;;15.90;4.15;;;12.20;99.90;16.00;100761.00;;;;5428327;26;20451;-49
2024/05/01 03:46:36;;;;;;;8.30;4.07;;;12.20;99.90;16.00;100770.00;;;;5459912;26;20458;-49
2024/05/01 03:49:03;;;;;;;6.13;4.18;;;12.20;99.90;16.10;100768.00;;;;5459498;26;19995;-48
2024/05/01 03:51:29;;;;;;;7.90;3.97;;;12.20;99.90;15.60;100768.00;;;;5451136;26;19994;-48
2024/05/01 03:53:55;;;;;;;6.05;3.83;;;12.20;99.90;16.20;100772.00;;;;5453834;26;20002;-54
2024/05/01 03:56:23;;;;;;;9.30;4.00;;;12.20;99.90;15.90;100770.00;;;;5446705;26;20003;-49
2024/05/01 03:58:49;;;;;;;15.50;4.28;;;12.20;99.90;16.00;100768.00;;;;5443115;26;20015;-47
2024/05/01 04:01:16;;;;;;;8.02;3.47;;;12.20;99.90;15.90;100776.00;;;;5455102;26;20006;-49
2024/05/01 04:03:42;;;;;;;10.52;4.53;;;12.20;99.90;16.10;100776.00;;;;5458856;26;19999;-48
2024/05/01 04:06:08;;;;;;;12.15;4.20;;;12.10;99.90;16.30;100784.00;;;;5463549;26;19998;-47
2024/05/01 04:08:37;;;;;;;11.55;4.70;;;12.20;99.90;16.20;100778.00;;;;5460517;26;20002;-48
2024/05/01 04:11:04;;;;;;;11.43;4.40;;;12.20;99.90;16.20;100783.00;;;;5484765;26;20014;-50
2024/05/01 04:13:30;;;;;;;14.23;4.45;;;12.30;99.90;16.00;100784.00;;;;5453825;26;20523;-51
2024/05/01 04:15:56;;;;;;;11.35;4.65;;;12.30;99.90;16.10;100786.00;;;;5451547;26;19999;-49
2024/05/01 04:18:23;;;;;;;6.93;4.00;;;12.30;99.90;15.80;100780.00;;;;5441525;26;20009;-49
2024/05/01 04:20:49;;;;;;;13.45;4.40;;;12.30;99.90;16.10;100796.00;;;;5451869;26;20007;-49
2024/05/01 04:23:15;;;;;;;11.50;4.68;;;12.40;99.90;15.90;100791.00;;;;5446906;26;20354;-55
2024/05/01 04:25:41;;;;;;;10.15;4.32;;;12.30;99.90;16.10;100790.00;;;;5439494;26;20405;-62
2024/05/01 04:28:07;;;;;;;8.00;4.60;;;12.30;99.90;16.20;100786.00;;;;5445351;26;20038;-49
2024/05/01 04:30:34;;;;;;;14.00;4.68;;;12.40;99.90;16.10;100801.00;;;;5447277;26;20007;-50
2024/05/01 04:33:00;;;;;;;7.57;4.13;;;12.40;99.90;16.10;100798.00;;;;5443015;26;20087;-48
2024/05/01 04:35:26;;;;;;;10.60;4.68;;;12.40;99.90;16.20;100782.00;;;;5447149;26;20364;-49
2024/05/01 04:37:52;;;;;;;9.60;4.47;;;12.50;99.90;16.00;100795.00;;;;5447996;26;20325;-50
2024/05/01 04:40:19;;;;;;;9.52;4.32;;;12.50;99.90;16.30;100788.00;;;;5442472;26;20411;-48
2024/05/01 04:42:45;;;;;;;10.95;4.57;;;12.50;99.90;16.20;100789.00;;;;5450849;26;20032;-54
2024/05/01 04:45:11;;;;;;;8.43;4.40;;;12.60;99.90;16.20;100802.00;;;;5483288;26;20081;-48
2024/05/01 04:47:37;;;;;;;11.48;4.25;;;12.60;99.90;16.70;100795.00;;;;5459078;26;20040;-48
2024/05/01 04:50:04;;;;;;;11.25;3.88;;;12.70;99.90;16.60;100795.00;;;;5470199;26;20000;-50
2024/05/01 04:52:30;;;;;;;13.98;5.18;;;12.70;99.90;16.90;100806.00;;;;5452965;26;20003;-50
2024/05/01 04:54:56;;;;;;;11.15;4.35;;;12.80;99.90;16.50;100797.00;;;;5444352;26;20006;-54
2024/05/01 04:57:24;;;;;;;11.65;4.93;;;12.90;99.90;16.90;100792.00;;;;5459908;26;19995;-54
2024/05/01 04:59:50;;;;;;;8.07;4.30;;;13.00;99.90;17.00;100791.00;;;;5454904;26;20009;-50
2024/05/01 05:02:16;;;;;;;9.07;4.68;;;13.10;99.90;17.00;100790.00;;;;5452269;26;20332;-52
2024/05/01 05:04:43;;;;;;;12.07;4.35;;;13.20;99.90;16.80;100791.00;;;;5446376;26;20010;-50
2024/05/01 05:07:09;;;;;;;10.63;4.82;;;13.40;99.90;16.70;100801.00;;;;5447838;26;19994;-55
2024/05/01 05:09:35;;;;;;;8.20;4.60;;;13.50;99.90;16.80;100795.00;;;;5446161;26;20076;-49
2024/05/01 05:12:02;;;;;;;9.02;3.97;;;13.50;99.90;16.90;100790.00;;;;5446736;26;20002;-49
2024/05/01 05:14:28;;;;;;;14.75;4.20;;;13.60;99.90;16.90;100788.00;;;;5438259;26;20017;-48
2024/05/01 05:16:54;;;;;;;12.43;4.50;;;13.60;99.90;17.10;100790.00;;;;5477505;26;19999;-47
2024/05/01 05:19:21;;;;;;;10.50;4.00;;;13.70;99.90;16.90;100795.00;;;;5439942;26;20043;-50
2024/05/01 05:21:47;;;;;;;12.45;4.07;;;13.80;99.90;17.20;100791.00;;;;5436968;26;20014;-50
2024/05/01 05:24:13;;;;;;;7.68;3.97;;;13.90;99.90;16.70;100794.00;;;;5441672;26;20428;-48
2024/05/01 05:26:39;;;;;;;8.48;4.47;;;13.90;99.90;17.00;100794.00;;;;5447356;26;20010;-49
2024/05/01 05:29:06;;;;;;;7.05;4.68;;;13.90;99.90;16.50;100797.00;;;;5443503;26;19995;-49
2024/05/01 05:31:39;;;;;;;10.32;4.45;;;13.90;99.90;17.40;100792.00;;;;5439442;26;20400;-48
2024/05/01 05:34:07;;;;;;;14.10;4.47;;;14.00;99.90;17.40;100797.00;;;;5437804;26;20011;-49
2024/05/01 05:36:34;;;;;;;10.50;4.05;;;14.10;99.90;17.10;100797.00;;;;5439066;26;20109;-50
2024/05/01 05:39:01;;;;;;;10.77;4.32;;;14.20;99.90;17.20;100799.00;;;;5438446;26;20289;-50
2024/05/01 05:41:28;;;;;;;10.95;4.57;;;14.20;99.90;17.70;100792.00;;;;5441978;26;20439;-50
2024/05/01 05:43:54;;;;;;;8.82;4.00;;;14.30;99.90;17.60;100795.00;;;;5457532;26;20424;-49
2024/05/01 05:46:20;;;;;;;5.72;3.83;;;14.40;99.90;17.60;100799.00;;;;5457291;26;20460;-53
2024/05/01 05:48:46;;;;;;;11.27;3.90;;;14.50;99.90;17.70;100788.00;;;;5444389;26;20425;-47
2024/05/01 05:51:13;;;;;;;10.50;4.30;;;14.60;99.90;17.70;100791.00;;;;5442175;26;20015;-52
2024/05/01 05:53:42;;;;;;;16.00;4.35;;;14.60;99.90;17.90;100791.00;;;;5442930;26;20119;-52
2024/05/01 05:56:09;;;;;;;10.43;4.45;;;14.60;99.90;17.80;100792.00;;;;5440851;26;19995;-50
2024/05/01 05:58:35;;;;;;;10.93;4.18;;;14.80;99.90;18.00;100793.00;;;;5440115;26;20035;-49
2024/05/01 06:01:02;;;;;;;9.73;4.05;;;14.80;99.90;18.30;100787.00;;;;5444193;26;20437;-49
2024/05/01 06:03:28;;;;;;;6.68;4.03;;;15.00;99.90;18.90;100780.00;;;;5442330;26;20018;-48
2024/05/01 06:05:55;;;;;;;8.05;4.05;;;15.20;99.90;18.80;100790.00;;;;5439337;26;20010;-48
2024/05/01 06:08:21;;;;;;;6.32;3.90;;;15.40;99.90;18.40;100797.00;;;;5441348;26;19995;-48
2024/05/01 06:10:47;;;;;;;6.93;3.80;;;15.40;99.90;18.90;100793.00;;;;5443681;26;20076;-47
2024/05/01 06:13:13;;;;;;;11.20;4.10;;;15.50;99.90;18.90;100792.00;;;;5440379;26;20007;-49
2024/05/01 06:15:40;;;;;;;5.55;3.67;;;15.60;99.90;18.90;100783.00;;;;5447200;26;20018;-50
2024/05/01 06:18:10;;;;;;;10.13;3.78;;;15.70;99.90;18.80;100788.00;;;;5445887;26;20004;-48
2024/05/01 06:20:36;;;;;;;8.75;4.15;;;15.80;99.90;19.20;100791.00;;;;5447124;26;20009;-50
2024/05/01 06:23:06;;;;;;;6.63;3.88;;;15.90;99.90;19.70;100796.00;;;;5446999;26;20003;-49
2024/05/01 06:25:32;;;;;;;10.80;4.05;;;16.00;99.90;19.70;100800.00;;;;5445893;26;20432;-49
2024/05/01 06:27:59;;;;;;;8.70;4.03;;;16.10;99.90;19.60;100805.00;;;;5448294;26;20383;-49
2024/05/01 06:30:28;;;;;;;6.20;3.42;;;16.30;99.90;19.50;100802.00;;;;5441992;26;20014;-47
2024/05/01 06:32:54;;;;;;;6.45;3.53;;;16.30;99.90;19.80;100808.00;;;;5442613;26;20027;-48
2024/05/01 06:35:20;;;;;;;6.55;3.67;;;16.50;99.90;19.80;100814.00;;;;5451315;26;20034;-51
2024/05/01 06:37:46;;;;;;;11.82;4.20;;;16.50;99.90;20.20;100801.00;;;;5440759;26;20007;-48
2024/05/01 06:40:13;;;;;;;8.02;3.67;;;16.70;99.90;20.10;100805.00;;;;5452193;26;20023;-48
2024/05/01 06:42:39;;;;;;;14.93;6.20;;;16.90;99.90;20.20;100800.00;;;;5446292;26;20009;-49
2024/05/01 06:45:05;;;;;;;8.25;3.42;;;16.90;99.90;20.00;100804.00;;;;5453443;26;20429;-50
2024/05/01 06:47:32;;;;;;;10.25;3.33;;;16.90;99.90;20.70;100798.00;;;;5448282;26;20012;-48
2024/05/01 06:49:58;;;;;;;12.70;3.92;;;17.00;99.90;21.00;100802.00;;;;5447650;26;20100;-47
2024/05/01 06:52:24;;;;;;;7.95;3.42;;;17.20;99.90;20.70;100799.00;;;;5439716;26;20018;-49
2024/05/01 06:54:50;;;;;;;10.35;3.72;;;17.40;99.80;21.00;100799.00;;;;5442590;26;20049;-48
2024/05/01 06:57:16;;;;;;;6.20;3.28;;;17.50;99.50;20.70;100792.00;;;;5439083;26;19999;-49
2024/05/01 06:59:42;;;;;;;8.70;3.58;;;17.50;99.20;21.20;100804.00;;;;5448857;26;20011;-46
2024/05/01 07:02:08;;;;;;;10.07;3.72;;;17.70;98.60;21.50;100798.00;;;;5447143;26;20013;-54
2024/05/01 07:04:35;;;;;;;13.77;3.80;;;17.80;98.40;22.10;100805.00;;;;5445907;26;19998;-59
2024/05/01 07:07:00;;;;;;;8.45;3.42;;;18.10;98.70;22.10;100799.00;;;;5437568;26;20076;-49
2024/05/01 07:09:27;;;;;;;15.98;3.70;;;18.30;98.40;22.10;100798.00;;;;5451457;26;19991;-47
2024/05/01 07:11:53;;;;;;;8.38;3.50;;;18.50;97.40;22.70;100797.00;;;;5450212;26;20004;-48
2024/05/01 07:14:19;;;;;;;6.97;3.58;;;18.80;97.10;22.60;100795.00;;;;5452589;26;20015;-48
2024/05/01 07:16:45;;;;;;;9.13;3.33;;;18.90;96.50;22.90;100796.00;;;;5444343;26;20014;-56
2024/05/01 07:19:11;;;;;;;6.45;3.30;;;19.20;95.70;23.20;100796.00;;;;5448676;26;20364;-50
2024/05/01 07:21:37;;;;;;;10.65;3.55;;;19.40;95.40;23.70;100799.00;;;;5447124;26;20436;-49
2024/05/01 07:24:04;;;;;;;6.47;3.17;;;19.60;95.30;23.90;100797.00;;;;5442871;26;20383;-50
2024/05/01 07:26:30;;;;;;;12.15;3.90;;;19.80;95.00;23.60;100791.00;;;;5454692;26;20002;-49
2024/05/01 07:28:56;;;;;;;6.13;3.28;;;20.00;94.30;23.90;100800.00;;;;5441917;26;20011;-50
2024/05/01 07:31:23;;;;;;;7.22;3.83;;;20.20;93.50;24.60;100799.00;;;;5444399;26;20452;-54
2024/05/01 07:33:49;;;;;;;9.93;3.47;;;20.40;93.60;24.40;100798.00;;;;5442704;26;20003;-50
2024/05/01 07:36:14;;;;;;;6.97;3.47;;;20.70;92.40;24.60;100796.00;;;;5470744;26;20009;-48
2024/05/01 07:38:41;;;;;;;11.27;3.75;;;20.80;92.00;24.70;100788.00;;;;5451942;26;19998;-49
2024/05/01 07:41:08;;;;;;;5.43;2.92;;;20.80;92.50;24.70;100790.00;;;;5458353;26;20396;-49
2024/05/01 07:43:34;;;;;;;14.00;3.95;;;20.80;91.90;25.10;100781.00;;;;5448064;26;20007;-50
2024/05/01 07:46:00;;;;;;;9.70;3.30;;;21.20;91.60;25.40;100789.00;;;;5442071;26;20443;-50
2024/05/01 07:48:26;;;;;;;8.00;3.55;;;21.30;90.90;25.40;100782.00;;;;5440463;26;20000;-48
2024/05/01 07:50:52;;;;;;;11.38;3.97;;;21.60;90.50;25.40;100784.00;;;;5436687;26;20006;-49
2024/05/01 07:53:18;;;;;;;8.30;3.42;;;21.60;90.10;25.60;100790.00;;;;5437533;26;19999;-48
2024/05/01 07:55:44;;;;;;;4.80;3.80;;;21.70;89.60;25.80;100785.00;;;;5447368;26;19999;-48
2024/05/01 07:58:10;;;;;;;13.65;3.67;;;21.80;89.50;26.00;100786.00;;;;5435256;26;20355;-50
2024/05/01 08:00:38;;;;;;;17.05;3.22;;;22.10;89.60;26.40;100795.00;;;;5439347;26;20277;-49
2024/05/01 08:03:04;;;;;;;8.48;3.47;;;22.20;88.30;25.90;100790.00;;;;5435650;26;20017;-49
2024/05/01 08:05:30;;;;;;;6.82;3.47;;;22.30;86.00;26.40;100789.00;;;;5442020;26;20007;-48
2024/05/01 08:07:56;;;;;;;6.68;3.40;;;22.40;85.50;26.20;100792.00;;;;5438171;26;19998;-48
2024/05/01 08:10:22;;;;;;;9.73;3.10;;;22.50;85.10;26.30;100787.00;;;;5440656;26;20311;-52
2024/05/01 08:12:49;;;;;;;15.68;3.72;;;22.70;84.20;26.40;100792.00;;;;5444319;26;20394;-49
2024/05/01 08:15:15;;;;;;;9.10;3.35;;;22.70;83.80;26.60;100794.00;;;;5439489;26;20389;-49
2024/05/01 08:17:41;;;;;;;4.38;3.45;;;22.90;83.80;26.40;100797.00;;;;5438246;26;20000;-49
2024/05/01 08:20:08;;;;;;;11.23;3.35;;;23.00;81.00;26.10;100797.00;;;;5433273;26;20437;-49
2024/05/01 08:22:34;;;;;;;5.50;3.42;;;23.00;79.70;26.20;100795.00;;;;5443404;26;19999;-50
2024/05/01 08:25:00;;;;;;;6.47;3.20;;;23.00;79.40;27.40;100793.00;;;;5434720;26;20002;-49
2024/05/01 08:27:26;;;;;;;10.20;3.10;;;23.40;79.20;27.30;100793.00;;;;5446678;26;20021;-49
2024/05/01 08:29:52;;;;;;;9.98;3.22;;;23.70;77.40;27.70;100795.00;;;;5442093;26;20014;-49
2024/05/01 08:32:19;;;;;;;9.70;3.40;;;23.80;78.00;27.80;100797.00;;;;5450591;26;19998;-50
2024/05/01 08:34:45;;;;;;;12.00;3.47;;;24.10;76.30;27.70;100795.00;;;;5439245;26;20014;-52
2024/05/01 08:37:12;;;;;;;8.88;3.65;;;23.90;75.50;27.90;100783.00;;;;5453940;26;20003;-51
2024/05/01 08:39:38;;;;;;;8.00;3.78;;;24.20;75.50;27.70;100780.00;;;;5451768;26;20006;-51
2024/05/01 08:42:05;;;;;;;6.63;3.50;;;24.20;75.30;27.80;100796.00;;;;5441050;26;19999;-50
2024/05/01 08:44:31;;;;;;;7.35;3.15;;;24.30;74.60;27.90;100781.00;;;;5448525;26;20014;-49
2024/05/01 08:47:03;;;;;;;7.90;2.92;;;24.50;73.80;28.20;100778.00;;;;5438845;26;19998;-50
2024/05/01 08:49:29;;;;;;;9.77;3.20;;;24.50;73.30;28.80;100789.00;;;;5450010;26;19998;-52
2024/05/01 08:52:02;;;;;;;5.57;3.10;;;25.00;73.00;28.80;100785.00;;;;5444483;26;20015;-52
2024/05/01 08:54:29;;;;;;;13.30;3.25;;;25.20;72.20;28.90;100774.00;;;;5445574;26;20007;-63
2024/05/01 08:56:58;;;;;;;4.75;3.75;;;25.30;71.60;29.00;100781.00;;;;5438443;26;20018;-54
2024/05/01 08:59:26;;;;;;;9.43;4.30;;;25.40;70.90;28.90;100781.00;;;;5443919;26;20003;-49
2024/05/01 09:01:54;;;;;;;11.45;3.90;;;25.50;70.10;29.50;100787.00;;;;5440853;26;19999;-63
2024/05/01 09:04:20;;;;;;;6.25;3.05;;;25.70;69.70;29.40;100780.00;;;;5432622;26;20023;-48
2024/05/01 09:06:53;;;;;;;7.32;3.15;;;25.60;69.20;30.10;100772.00;;;;5441674;26;20460;-49
2024/05/01 09:09:19;;;;;;;7.03;3.78;;;26.10;69.90;30.10;100775.00;;;;5451827;26;20330;-50
2024/05/01 09:11:45;;;;;;;8.93;3.30;;;26.30;68.40;29.90;100769.00;;;;5436464;26;20048;-51
2024/05/01 09:14:12;;;;;;;3.88;2.85;;;26.30;67.90;30.10;100770.00;;;;5448500;26;19996;-49
2024/05/01 09:16:44;;;;;;;9.80;2.90;;;26.50;66.60;30.40;100769.00;;;;5420200;26;19996;-48
2024/05/01 09:19:10;;;;;;;4.67;3.00;;;26.60;66.20;31.10;100764.00;;;;5421126;26;19999;-52
2024/05/01 09:21:37;;;;;;;9.75;4.13;;;27.10;64.10;31.30;100762.00;;;;5421065;26;20414;-50
2024/05/01 09:24:06;;;;;;;5.63;2.88;;;27.60;63.80;32.00;100753.00;;;;5421249;26;20425;-51
2024/05/01 09:26:33;;;;;;;9.18;3.22;;;27.90;63.80;32.40;100757.00;;;;5421196;26;20459;-53
2024/05/01 09:29:02;;;;;;;8.50;3.28;;;28.10;62.20;33.10;100749.00;;;;5419003;26;20083;-56
2024/05/01 09:31:28;;;;;;;11.45;3.35;;;28.70;62.60;33.00;100751.00;;;;5421298;26;20000;-50
2024/05/01 09:33:56;;;;;;;6.30;3.00;;;28.80;60.70;33.10;100748.00;;;;5449087;26;19992;-51
2024/05/01 09:36:26;;;;;;;10.82;3.10;;;28.90;58.70;33.50;100750.00;;;;5421090;26;20354;-50
2024/05/01 09:39:02;;;;;;;5.18;2.55;;;29.10;58.00;33.70;100739.00;;;;5422173;26;20003;-50
2024/05/01 09:41:45;;;;;;;7.40;2.65;;;30.00;56.90;34.50;100743.00;;;;5421185;26;19995;-53
2024/05/01 09:44:21;;;;;;;5.88;2.47;;;30.30;55.90;34.20;100739.00;;;;5421441;26;20003;-49
2024/05/01 09:46:53;;;;;;;5.70;2.40;;;30.20;54.60;33.80;100746.00;;;;5419305;26;19991;-51
2024/05/01 09:49:21;;;;;;;13.38;2.50;;;30.10;54.90;34.40;100746.00;;;;5449607;26;20023;-49
2024/05/01 09:51:50;;;;;;;3.88;2.20;;;30.30;52.80;33.10;100734.00;;;;5420294;26;20011;-48
2024/05/01 09:54:16;;;;;;;4.65;2.45;;;29.90;51.70;33.40;100736.00;;;;5419502;26;19995;-49
2024/05/01 09:56:43;;;;;;;4.70;2.72;;;29.50;52.30;34.00;100735.00;;;;5419852;26;20002;-48
2024/05/01 09:59:09;;;;;;;5.80;2.20;;;30.00;52.20;34.70;100733.00;;;;5419564;26;20000;-50
2024/05/01 10:01:40;;;;;;;6.97;2.60;;;30.20;51.50;34.90;100729.00;;;;5420098;26;20007;-50
2024/05/01 10:04:07;;;;;;;6.80;2.60;;;30.80;50.90;35.80;100728.00;;;;5420840;26;20317;-50
2024/05/01 10:06:41;;;;;;;6.85;2.38;;;31.70;50.90;36.80;100727.00;;;;5420460;26;19996;-50
2024/05/01 10:09:08;;;;;;;8.52;2.10;;;32.20;49.50;36.60;100723.00;;;;5449592;26;19995;-49
2024/05/01 10:11:57;;;;;;;8.13;2.15;;;32.30;48.20;34.40;100730.00;;;;5420565;26;19995;-51
2024/05/01 10:14:26;;;;;;;5.68;2.03;;;32.40;46.90;34.10;100723.00;;;;5429680;26;19996;-50
2024/05/01 10:16:52;;;;;;;6.05;2.15;;;32.00;46.40;33.70;100713.00;;;;5418734;26;20123;-49
2024/05/01 10:19:22;;;;;;;5.28;2.30;;;31.80;46.80;33.80;100713.00;;;;5419618;26;20011;-49
2024/05/01 10:22:00;;;;;;;5.00;2.85;;;31.70;47.10;35.00;100709.00;;;;5418510;26;20004;-48
2024/05/01 10:24:31;;;;;;;6.90;3.17;;;31.40;49.00;36.10;100707.00;;;;5419474;26;20003;-50
2024/05/01 10:27:05;;;;;;;5.40;2.85;;;31.90;48.20;36.40;100702.00;;;;5419969;26;20004;-50
2024/05/01 10:29:37;;;;;;;5.60;2.90;;;32.40;48.00;36.30;100692.00;;;;5445544;26;20006;-51
2024/05/01 10:32:16;;;;;;;6.28;2.47;;;32.30;46.90;35.70;100689.00;;;;5418989;26;20061;-51
2024/05/01 10:34:43;;;;;;;4.28;2.70;;;32.30;47.30;36.30;100676.00;;;;5419625;26;20006;-49
2024/05/01 10:37:09;;;;;;;7.13;2.67;;;32.90;47.50;37.00;100683.00;;;;5419522;26;20003;-48
2024/05/01 10:39:37;;;;;;;6.22;2.40;;;32.90;46.50;36.30;100676.00;;;;5418625;26;20068;-50
2024/05/01 10:42:05;;;;;;;5.70;2.47;;;33.10;46.70;36.20;100675.00;;;;5418894;26;19996;-50
2024/05/01 10:44:31;;;;;;;2.67;2.03;;;32.60;47.90;35.40;100673.00;;;;5418108;26;20002;-49